Impacts TAF Board
For situational awareness. Not to be used for flight planning purposes.
IDs:

KJAN - Jackson/Evers Intl, MS, US

Issued at 0548 UTC 03 Jul 2022
Updated at 0551 UTC 03 Jul 2022
Potential Impact None Slight Moderate High
Time0454Z 03/06Z 03/07Z 03/08Z 03/09Z 03/10Z 03/11Z 03/12Z 03/13Z 03/14Z 03/15Z 03/16Z 03/17Z 03/18Z>>
Type OBS PRVL PRVL PRVL PRVL PRVL PRVL PRVL PRVL PRVL PRVL PRVL PRVL PRVL
VIS 10 >6 >6 >6 >6 >6 >6 >6 >6 >6 >6 >6 >6 >6
CIG -- 250 250 250 250 250 250 250 250 70 70 70 70 70
Cover CLR BKN BKN BKN BKN BKN BKN BKN BKN BKN BKN BKN BKN BKN
FltCat VFR VFR VFR VFR VFR VFR VFR VFR VFR VFR VFR VFR VFR VFR
WX -- -- -- -- -- -- -- -- -- -- -- VCSH VCSH VCSH
WDir 160 160 160 160 160 160 160 160 160 220 220 240 240 240
WSpd 5 5 5 5 5 5 5 5 5 5 5 5 5 5
WGst -- -- -- -- -- -- -- -- -- -- -- -- -- --
WSHgt -- -- -- -- -- -- -- -- -- -- -- -- -- --
WSDir -- -- -- -- -- -- -- -- -- -- -- -- -- --
WSSpd -- -- -- -- -- -- -- -- -- -- -- -- -- --
Raw TAF
KJAN 030548Z 0306/0406 16005KT P6SM BKN250
  FM031400 22005KT P6SM BKN070
  FM031600 24005KT P6SM VCSH BKN070
  PROB30 0322/0401 2SM +TSRA BKN040CB
  FM040100 15003KT P6SM BKN100


Raw METAR
KJAN 030454Z 16005KT 10SM CLR 23/23 A3002 RMK AO2 SLP162 T02330228
KJAN 030354Z 13003KT 10SM CLR 23/23 A3002 RMK AO2 SLP161 T02330228
KJAN 030254Z 10003KT 10SM FEW120 24/23 A3002 RMK AO2 RAB11E20 SLP159 P0001 60001 T02390233 53002

METAR Board
Radar Display
Forecast Discussion
For situational awareness. Not to be used for flight planning purposes.